deformed-offering

Nearby METAR Reports

 

KSJC - San Jose, California, USA
Distance from station: NE 9mi, 14km
Updated: Sat, 04-Apr-2020 7:53am PDT
Mostly Cloudy
Mostly Cloudy
 Wind from SE
Wind: SE 5 mph , 7 km/h
Temperature: 46°F , 8°C
Wind Chill: 44°F , 7°C
Dew Point: 39°F , 4°C
Humidity: 76%
Barometer: 29.95 inHg , 1014.2 hPa
Clouds: Mostly Cloudy
Visibility: 10 miles , 16 km
Cloud details: Few Clouds 1200 ft
Mostly Cloudy 4000 ft
Mostly Cloudy 9000 ft
2020/04/04 14:53 KSJC 041453Z 14004KT 10SM FEW012 BKN040 BKN090 08/04 A2995 RMK AO2 SLP141 T00780039 56006 $
KRHV - San Jose/Reid, California, USA
Distance from station: ENE 12mi, 19km
Updated: Sat, 04-Apr-2020 8:47am PDT
Mostly Cloudy
Mostly Cloudy
 Wind from calm
Wind: Calm
Temperature: 48°F , 9°C
Dew Point: 41°F , 5°C
Humidity: 76%
Barometer: 29.95 inHg , 1014.2 hPa
Clouds: Mostly Cloudy
Visibility: 10 miles , 16 km
Cloud details: Mostly Cloudy 4000 ft
Mostly Cloudy 8000 ft
2020/04/04 15:47 KRHV 041547Z 00000KT 10SM BKN040 BKN080 09/05 A2995
 
KPAO - Palo Alto, California, USA
Distance from station: NNW 14mi, 23km
Updated: Sat, 04-Apr-2020 8:47am PDT
Mostly Cloudy
Mostly Cloudy
 Wind from SSE
Wind: SSE 9 mph , 15 km/h
Temperature: 48°F , 9°C
Wind Chill: 44°F , 7°C
Dew Point: 39°F , 4°C
Humidity: 71%
Barometer: 29.95 inHg , 1014.2 hPa
Clouds: Mostly Cloudy
Visibility: 10 miles , 16 km
Cloud details: Mostly Cloudy 3000 ft
Mostly Cloudy 8500 ft
2020/04/04 15:47 KPAO 041547Z 15008KT 10SM BKN030 BKN085 09/04 A2995
KSQL - San Carlos Airpo, California, USA
Distance from station: NW 21mi, 34km
Updated: Sat, 04-Apr-2020 8:47am PDT
Overcast
Overcast
 Wind from varies
Wind: varies 3 mph , 6 km/h
Temperature: 48°F , 9°C
Dew Point: 39°F , 4°C
Humidity: 71%
Barometer: 29.94 inHg , 1013.9 hPa
Clouds: Overcast
Visibility: 10 miles , 16 km
Cloud details: Overcast 2100 ft
2020/04/04 15:47 KSQL 041547Z VRB03KT 10SM OVC021 09/04 A2994
 
KWVI - Watsonville, California, USA
Distance from station: SSE 27mi, 44km
Updated: Sat, 04-Apr-2020 7:53am PDT
Clear
Clear
 Wind from calm
Wind: Calm
Temperature: 45°F , 7°C
Dew Point: 41°F , 5°C
Humidity: 87%
Barometer: 29.97 inHg , 1014.9 hPa
Clouds: Clear
Visibility: 10 miles , 16 km
2020/04/04 14:53 KWVI 041453Z AUTO 00000KT 10SM CLR 07/05 A2997 RMK AO2 SLP148 T00670050 55002
KHWD - Hayward, California, USA
Distance from station: N 28mi, 44km
Updated: Sat, 04-Apr-2020 7:54am PDT
Overcast
Overcast
 Wind from SSE
Wind: SSE 8 mph , 13 km/h
Temperature: 48°F , 9°C
Wind Chill: 44°F , 7°C
Dew Point: 39°F , 4°C
Humidity: 71%
Barometer: 29.93 inHg , 1013.5 hPa
Clouds: Overcast
Visibility: 10 miles , 16 km
Cloud details: Overcast 1800 ft
2020/04/04 14:54 KHWD 041454Z 16007KT 10SM OVC018 09/04 A2993 RMK AO2 SLP145 T00940044 58006
 
KSFO - San Francisco, California, USA
Distance from station: NW 30mi, 49km
Updated: Sat, 04-Apr-2020 8:47am PDT
Mostly Cloudy
Mostly Cloudy
 Wind from SE
Wind: SE 9 mph , 15 km/h
Temperature: 52°F , 11°C
Dew Point: 45°F , 7°C
Humidity: 77%
Barometer: 29.92 inHg , 1013.2 hPa
Clouds: Mostly Cloudy
Visibility: 10 miles , 16 km
Cloud details: Few Clouds 1000 ft
Mostly Cloudy 1900 ft
Mostly Cloudy 9000 ft
2020/04/04 15:47 KSFO 041547Z 14008KT 10SM FEW010 BKN019 BKN090 11/07 A2992 RMK AO2 T01110067
KHAF - Half Moon Bay, California, USA
Distance from station: WNW 31mi, 50km
Updated: Sat, 04-Apr-2020 8:35am PDT
Mist, Overcast
Mist, Overcast
 Wind from SE
Wind: SE 8 mph , 13 km/h
Temperature: 48°F , 9°C
Wind Chill: 44°F , 7°C
Dew Point: 48°F , 9°C
Humidity: 100%
Barometer: 29.94 inHg , 1013.9 hPa
Summary: Mist
Clouds: Overcast
Visibility: 3 miles , 5 km
Cloud details: Mostly Cloudy 500 ft
Overcast 1500 ft
2020/04/04 15:35 KHAF 041535Z AUTO 13007KT 3SM BR BKN005 OVC015 09/09 A2994 RMK AO2
 
KLVK - Livermore, California, USA
Distance from station: NNE 31mi, 51km
Updated: Sat, 04-Apr-2020 7:53am PDT
Overcast
Overcast
 Wind from SSW
Wind: SSW 10 mph , 17 km/h
Temperature: 48°F , 9°C
Wind Chill: 44°F , 7°C
Dew Point: 39°F , 4°C
Humidity: 71%
Barometer: 29.93 inHg , 1013.5 hPa
Clouds: Overcast
Visibility: 10 miles , 16 km
Cloud details: Overcast 2000 ft
2020/04/04 14:53 KLVK 041453Z 20009KT 10SM OVC020 09/04 A2993 RMK AO2 SLP132 T00890044 56004
KOAK - Oakland, California, USA
Distance from station: NNW 33mi, 53km
Updated: Sat, 04-Apr-2020 8:39am PDT
Overcast
Overcast
 Wind from S
Wind: S 9 mph , 15 km/h
Temperature: 54°F , 12°C
Dew Point: 45°F , 7°C
Humidity: 72%
Barometer: 29.93 inHg , 1013.5 hPa
Clouds: Overcast
Visibility: 10 miles , 16 km
Cloud details: Overcast 1500 ft
2020/04/04 15:39 KOAK 041539Z 18008KT 10SM OVC015 12/07 A2993 RMK AO2 T01170072
 
KCVH - Hollister Muni, California, USA
Distance from station: SE 42mi, 68km
Updated: Sat, 04-Apr-2020 8:35am PDT
Clear
Clear
 Wind from calm
Wind: Calm
Temperature: 46°F , 8°C
Dew Point: 39°F , 4°C
Humidity: 76%
Barometer: 29.97 inHg , 1014.9 hPa
Clouds: Clear
Visibility: 10 miles , 16 km
2020/04/04 15:35 KCVH 041535Z AUTO 00000KT 10SM CLR 08/04 A2997 RMK A01
KSNS - Salinas, California, USA
Distance from station: SSE 48mi, 77km
Updated: Sat, 04-Apr-2020 8:46am PDT
Mostly Cloudy
Mostly Cloudy
 Wind from WNW
Wind: WNW 5 mph , 7 km/h
Temperature: 52°F , 11°C
Dew Point: 43°F , 6°C
Humidity: 72%
Barometer: 29.96 inHg , 1014.6 hPa
Clouds: Mostly Cloudy
Visibility: 10 miles , 16 km
Cloud details: Mostly Cloudy 2300 ft
2020/04/04 15:46 KSNS 041546Z 29004KT 10SM BKN023 11/06 A2996 RMK AO2 T01110061
 
KMRY - Monterey, California, USA
Distance from station: SSE 49mi, 78km
Updated: Sat, 04-Apr-2020 7:54am PDT
Mostly Cloudy
Mostly Cloudy
 Wind from S
Wind: S 5 mph , 7 km/h
Temperature: 52°F , 11°C
Dew Point: 43°F , 6°C
Humidity: 72%
Barometer: 29.96 inHg , 1014.6 hPa
Clouds: Mostly Cloudy
Visibility: 10 miles , 16 km
Cloud details: Mostly Cloudy 2100 ft
2020/04/04 14:54 KMRY 041454Z 18004KT 10SM BKN021 11/06 A2996 RMK AO2 SLP159 T01060061 56005
KCCR - Concord, California, USA
Distance from station: N 50mi, 81km
Updated: Sat, 04-Apr-2020 8:50am PDT
Mostly Cloudy
Mostly Cloudy
 Wind from S
Wind: S 12 mph , 19 km/h
Temperature: 52°F , 11°C
Dew Point: 45°F , 7°C
Humidity: 77%
Barometer: 29.91 inHg , 1012.9 hPa
Clouds: Mostly Cloudy
Visibility: 10 miles , 16 km
Cloud details: Mostly Cloudy 1700 ft
Mostly Cloudy 3400 ft
2020/04/04 15:50 KCCR 041550Z 18010KT 10SM BKN017 BKN034 11/07 A2991 RMK AO2
deformed-offering